sensor_id;sensor_type;location;lat;lon;timestamp;pressure;altitude;pressure_sealevel;temperature;humidity
32081;BME280;18593;51.426;7.030;2023-03-23T00:00:59;99419.97;;;12.58;74.68
32081;BME280;18593;51.426;7.030;2023-03-23T00:03:26;99417.06;;;12.60;74.48
32081;BME280;18593;51.426;7.030;2023-03-23T00:05:54;99411.72;;;12.60;74.61
32081;BME280;18593;51.426;7.030;2023-03-23T00:08:29;99410.66;;;12.61;74.44
32081;BME280;18593;51.426;7.030;2023-03-23T00:10:57;99397.84;;;12.63;74.80
32081;BME280;18593;51.426;7.030;2023-03-23T00:13:28;99399.69;;;12.62;74.50
32081;BME280;18593;51.426;7.030;2023-03-23T00:15:55;99401.56;;;12.62;74.78
32081;BME280;18593;51.426;7.030;2023-03-23T00:18:23;99387.88;;;12.58;74.94
32081;BME280;18593;51.426;7.030;2023-03-23T00:20:52;99382.31;;;12.60;74.51
32081;BME280;18593;51.426;7.030;2023-03-23T00:23:20;99383.91;;;12.61;74.80
32081;BME280;18593;51.426;7.030;2023-03-23T00:25:51;99387.66;;;12.60;74.38
32081;BME280;18593;51.426;7.030;2023-03-23T00:28:20;99381.50;;;12.59;74.57
32081;BME280;18593;51.426;7.030;2023-03-23T00:30:57;99386.00;;;12.59;74.68
32081;BME280;18593;51.426;7.030;2023-03-23T00:33:24;99375.88;;;12.61;74.47
32081;BME280;18593;51.426;7.030;2023-03-23T00:35:52;99368.34;;;12.58;74.51
32081;BME280;18593;51.426;7.030;2023-03-23T00:38:20;99367.00;;;12.55;74.73
32081;BME280;18593;51.426;7.030;2023-03-23T00:40:47;99363.25;;;12.56;74.41
32081;BME280;18593;51.426;7.030;2023-03-23T00:43:18;99371.03;;;12.58;74.62
32081;BME280;18593;51.426;7.030;2023-03-23T00:45:45;99376.91;;;12.55;75.11
32081;BME280;18593;51.426;7.030;2023-03-23T00:48:18;99383.81;;;12.51;74.89
32081;BME280;18593;51.426;7.030;2023-03-23T00:50:45;99389.97;;;12.51;74.88
32081;BME280;18593;51.426;7.030;2023-03-23T00:53:12;99376.59;;;12.51;74.88
32081;BME280;18593;51.426;7.030;2023-03-23T00:55:40;99379.56;;;12.55;74.67
32081;BME280;18593;51.426;7.030;2023-03-23T00:58:07;99368.06;;;12.54;74.98
32081;BME280;18593;51.426;7.030;2023-03-23T01:00:36;99366.19;;;12.55;74.75
32081;BME280;18593;51.426;7.030;2023-03-23T01:03:03;99369.41;;;12.57;74.98
32081;BME280;18593;51.426;7.030;2023-03-23T01:05:34;99369.97;;;12.59;74.82
32081;BME280;18593;51.426;7.030;2023-03-23T01:08:01;99374.81;;;12.62;74.69
32081;BME280;18593;51.426;7.030;2023-03-23T01:10:30;99371.09;;;12.63;74.51
32081;BME280;18593;51.426;7.030;2023-03-23T01:12:58;99360.97;;;12.65;74.23
32081;BME280;18593;51.426;7.030;2023-03-23T01:15:25;99373.53;;;12.65;74.52
32081;BME280;18593;51.426;7.030;2023-03-23T01:17:54;99366.31;;;12.65;74.26
32081;BME280;18593;51.426;7.030;2023-03-23T01:20:21;99374.06;;;12.67;74.08
32081;BME280;18593;51.426;7.030;2023-03-23T01:22:48;99381.84;;;12.68;73.67
32081;BME280;18593;51.426;7.030;2023-03-23T01:25:15;99372.78;;;12.69;74.14
32081;BME280;18593;51.426;7.030;2023-03-23T01:27:42;99363.09;;;12.68;73.97
32081;BME280;18593;51.426;7.030;2023-03-23T01:30:11;99373.81;;;12.68;74.09
32081;BME280;18593;51.426;7.030;2023-03-23T01:32:38;99369.53;;;12.67;73.99
32081;BME280;18593;51.426;7.030;2023-03-23T01:35:07;99378.63;;;12.66;73.99
32081;BME280;18593;51.426;7.030;2023-03-23T01:37:35;99372.47;;;12.66;74.07
32081;BME280;18593;51.426;7.030;2023-03-23T01:40:03;99383.97;;;12.66;74.05
32081;BME280;18593;51.426;7.030;2023-03-23T01:42:32;99370.31;;;12.68;73.59
32081;BME280;18593;51.426;7.030;2023-03-23T01:45:27;99375.69;;;12.68;73.68
32081;BME280;18593;51.426;7.030;2023-03-23T01:48:00;99345.19;;;12.69;73.52
32081;BME280;18593;51.426;7.030;2023-03-23T01:50:34;99312.53;;;12.67;73.49
32081;BME280;18593;51.426;7.030;2023-03-23T01:53:03;99290.88;;;12.68;73.36
32081;BME280;18593;51.426;7.030;2023-03-23T01:55:34;99293.81;;;12.67;73.31
32081;BME280;18593;51.426;7.030;2023-03-23T01:58:04;99291.41;;;12.65;73.24
32081;BME280;18593;51.426;7.030;2023-03-23T02:00:31;99302.66;;;12.67;73.27
32081;BME280;18593;51.426;7.030;2023-03-23T02:03:00;99271.63;;;12.66;72.95
32081;BME280;18593;51.426;7.030;2023-03-23T02:05:36;99268.69;;;12.68;73.03
32081;BME280;18593;51.426;7.030;2023-03-23T02:08:11;99269.47;;;12.68;72.83
32081;BME280;18593;51.426;7.030;2023-03-23T02:10:39;99299.44;;;12.65;72.91
32081;BME280;18593;51.426;7.030;2023-03-23T02:13:09;99312.81;;;12.65;73.08
32081;BME280;18593;51.426;7.030;2023-03-23T02:15:53;99310.94;;;12.66;73.06
32081;BME280;18593;51.426;7.030;2023-03-23T02:18:30;99318.69;;;12.67;73.12
32081;BME280;18593;51.426;7.030;2023-03-23T02:21:25;99322.69;;;12.65;73.21
32081;BME280;18593;51.426;7.030;2023-03-23T02:24:18;99325.63;;;12.63;73.27
32081;BME280;18593;51.426;7.030;2023-03-23T02:26:54;99318.09;;;12.60;73.32
32081;BME280;18593;51.426;7.030;2023-03-23T02:29:30;99318.66;;;12.62;73.53
32081;BME280;18593;51.426;7.030;2023-03-23T02:32:12;99299.94;;;12.62;73.69
32081;BME280;18593;51.426;7.030;2023-03-23T02:34:44;99303.41;;;12.62;73.68
32081;BME280;18593;51.426;7.030;2023-03-23T02:37:14;99299.13;;;12.61;73.63
32081;BME280;18593;51.426;7.030;2023-03-23T02:39:45;99288.16;;;12.63;73.37
32081;BME280;18593;51.426;7.030;2023-03-23T02:42:16;99294.09;;;12.65;73.60
32081;BME280;18593;51.426;7.030;2023-03-23T02:44:44;99286.88;;;12.66;73.33
32081;BME280;18593;51.426;7.030;2023-03-23T02:47:14;99275.91;;;12.67;73.38
32081;BME280;18593;51.426;7.030;2023-03-23T02:49:45;99276.16;;;12.66;73.54
32081;BME280;18593;51.426;7.030;2023-03-23T02:52:15;99269.69;;;12.61;73.61
32081;BME280;18593;51.426;7.030;2023-03-23T02:54:46;99254.69;;;12.55;73.78
32081;BME280;18593;51.426;7.030;2023-03-23T02:57:14;99249.56;;;12.54;74.09
32081;BME280;18593;51.426;7.030;2023-03-23T02:59:43;99260.81;;;12.56;73.84
32081;BME280;18593;51.426;7.030;2023-03-23T03:02:12;99275.81;;;12.57;73.75
32081;BME280;18593;51.426;7.030;2023-03-23T03:04:39;99275.53;;;12.58;73.79
32081;BME280;18593;51.426;7.030;2023-03-23T03:07:25;99284.63;;;12.57;73.75
32081;BME280;18593;51.426;7.030;2023-03-23T03:09:57;99292.91;;;12.56;73.67
32081;BME280;18593;51.426;7.030;2023-03-23T03:12:36;99282.22;;;12.56;73.70
32081;BME280;18593;51.426;7.030;2023-03-23T03:15:11;99279.56;;;12.56;73.49
32081;BME280;18593;51.426;7.030;2023-03-23T03:17:44;99282.50;;;12.54;73.62
32081;BME280;18593;51.426;7.030;2023-03-23T03:20:15;99278.97;;;12.54;73.71
32081;BME280;18593;51.426;7.030;2023-03-23T03:22:44;99277.38;;;12.53;73.47
32081;BME280;18593;51.426;7.030;2023-03-23T03:25:12;99281.66;;;12.54;73.50
32081;BME280;18593;51.426;7.030;2023-03-23T03:27:43;99274.47;;;12.54;73.46
32081;BME280;18593;51.426;7.030;2023-03-23T03:30:25;99266.19;;;12.56;73.42
32081;BME280;18593;51.426;7.030;2023-03-23T03:32:53;99267.78;;;12.57;73.40
32081;BME280;18593;51.426;7.030;2023-03-23T03:35:21;99264.81;;;12.53;73.47
32081;BME280;18593;51.426;7.030;2023-03-23T03:37:51;99262.38;;;12.52;73.36
32081;BME280;18593;51.426;7.030;2023-03-23T03:40:20;99265.88;;;12.52;73.21
32081;BME280;18593;51.426;7.030;2023-03-23T03:42:49;99261.31;;;12.53;73.46
32081;BME280;18593;51.426;7.030;2023-03-23T03:45:18;99260.25;;;12.54;73.30
32081;BME280;18593;51.426;7.030;2023-03-23T03:47:45;99262.94;;;12.54;73.11
32081;BME280;18593;51.426;7.030;2023-03-23T03:50:13;99262.38;;;12.52;73.08
32081;BME280;18593;51.426;7.030;2023-03-23T03:52:40;99261.31;;;12.53;73.08
32081;BME280;18593;51.426;7.030;2023-03-23T03:55:09;99258.91;;;12.51;72.98
32081;BME280;18593;51.426;7.030;2023-03-23T03:57:40;99258.41;;;12.54;72.93
32081;BME280;18593;51.426;7.030;2023-03-23T04:00:42;99254.38;;;12.52;72.61
32081;BME280;18593;51.426;7.030;2023-03-23T04:03:14;99253.56;;;12.51;72.67
32081;BME280;18593;51.426;7.030;2023-03-23T04:05:58;99263.19;;;12.52;72.53
32081;BME280;18593;51.426;7.030;2023-03-23T04:08:26;99259.44;;;12.53;72.62
32081;BME280;18593;51.426;7.030;2023-03-23T04:10:55;99256.25;;;12.51;72.56
32081;BME280;18593;51.426;7.030;2023-03-23T04:13:23;99259.72;;;12.52;72.67
32081;BME280;18593;51.426;7.030;2023-03-23T04:16:02;99262.94;;;12.54;72.34
32081;BME280;18593;51.426;7.030;2023-03-23T04:18:31;99265.59;;;12.54;72.21
32081;BME280;18593;51.426;7.030;2023-03-23T04:21:00;99262.94;;;12.54;72.31
32081;BME280;18593;51.426;7.030;2023-03-23T04:23:29;99261.31;;;12.53;72.21
32081;BME280;18593;51.426;7.030;2023-03-23T04:26:03;99255.97;;;12.53;71.95
32081;BME280;18593;51.426;7.030;2023-03-23T04:28:38;99265.88;;;12.52;72.01
32081;BME280;18593;51.426;7.030;2023-03-23T04:31:29;99260.78;;;12.51;72.27
32081;BME280;18593;51.426;7.030;2023-03-23T04:34:06;99268.00;;;12.50;72.18
32081;BME280;18593;51.426;7.030;2023-03-23T04:36:39;99265.06;;;12.52;72.10
32081;BME280;18593;51.426;7.030;2023-03-23T04:39:12;99269.06;;;12.49;71.98
32081;BME280;18593;51.426;7.030;2023-03-23T04:41:43;99277.00;;;12.44;72.08
32081;BME280;18593;51.426;7.030;2023-03-23T04:44:20;99276.78;;;12.46;72.07
32081;BME280;18593;51.426;7.030;2023-03-23T04:47:04;99275.19;;;12.45;72.01
32081;BME280;18593;51.426;7.030;2023-03-23T04:49:37;99279.47;;;12.46;72.16
32081;BME280;18593;51.426;7.030;2023-03-23T04:52:14;99274.91;;;12.46;72.25
32081;BME280;18593;51.426;7.030;2023-03-23T04:54:44;99279.19;;;12.47;71.98
32081;BME280;18593;51.426;7.030;2023-03-23T04:57:13;99276.25;;;12.49;72.13
32081;BME280;18593;51.426;7.030;2023-03-23T04:59:47;99270.69;;;12.50;71.98
32081;BME280;18593;51.426;7.030;2023-03-23T05:02:18;99285.91;;;12.50;71.86
32081;BME280;18593;51.426;7.030;2023-03-23T05:04:46;99285.66;;;12.51;71.77
32081;BME280;18593;51.426;7.030;2023-03-23T05:07:18;99277.91;;;12.50;71.81
32081;BME280;18593;51.426;7.030;2023-03-23T05:09:48;99270.91;;;12.49;71.53
32081;BME280;18593;51.426;7.030;2023-03-23T05:12:19;99288.59;;;12.50;71.34
32081;BME280;18593;51.426;7.030;2023-03-23T05:15:00;99294.47;;;12.52;71.38
32081;BME280;18593;51.426;7.030;2023-03-23T05:17:29;99298.22;;;12.51;71.21
32081;BME280;18593;51.426;7.030;2023-03-23T05:20:00;99291.81;;;12.52;71.11
32081;BME280;18593;51.426;7.030;2023-03-23T05:22:40;99293.41;;;12.53;70.92
32081;BME280;18593;51.426;7.030;2023-03-23T05:25:10;99298.72;;;12.48;71.07
32081;BME280;18593;51.426;7.030;2023-03-23T05:27:43;99302.72;;;12.45;71.24
32081;BME280;18593;51.426;7.030;2023-03-23T05:30:22;99304.31;;;12.46;71.18
32081;BME280;18593;51.426;7.030;2023-03-23T05:32:49;99306.75;;;12.48;71.18
32081;BME280;18593;51.426;7.030;2023-03-23T05:35:30;99298.97;;;12.46;70.91
32081;BME280;18593;51.426;7.030;2023-03-23T05:37:57;99303.84;;;12.49;70.97
32081;BME280;18593;51.426;7.030;2023-03-23T05:40:24;99309.72;;;12.51;70.91
32081;BME280;18593;51.426;7.030;2023-03-23T05:42:59;99313.47;;;12.50;70.67
32081;BME280;18593;51.426;7.030;2023-03-23T05:45:38;99309.19;;;12.49;70.62
32081;BME280;18593;51.426;7.030;2023-03-23T05:48:05;99317.44;;;12.48;70.52
32081;BME280;18593;51.426;7.030;2023-03-23T05:50:32;99294.75;;;12.50;70.56
32081;BME280;18593;51.426;7.030;2023-03-23T05:53:00;99316.41;;;12.54;70.52
32081;BME280;18593;51.426;7.030;2023-03-23T05:55:31;99312.72;;;12.55;70.61
32081;BME280;18593;51.426;7.030;2023-03-23T05:58:09;99303.06;;;12.54;70.03
32081;BME280;18593;51.426;7.030;2023-03-23T06:00:38;99304.91;;;12.53;70.50
32081;BME280;18593;51.426;7.030;2023-03-23T06:03:18;99307.38;;;12.55;70.28
32081;BME280;18593;51.426;7.030;2023-03-23T06:05:51;99314.81;;;12.53;70.53
32081;BME280;18593;51.426;7.030;2023-03-23T06:08:22;99318.06;;;12.55;70.55
32081;BME280;18593;51.426;7.030;2023-03-23T06:10:49;99319.41;;;12.57;70.43
32081;BME280;18593;51.426;7.030;2023-03-23T06:13:19;99314.06;;;12.57;70.24
32081;BME280;18593;51.426;7.030;2023-03-23T06:15:48;99317.53;;;12.58;70.51
32081;BME280;18593;51.426;7.030;2023-03-23T06:18:22;99319.97;;;12.59;70.38
32081;BME280;18593;51.426;7.030;2023-03-23T06:21:27;99323.69;;;12.58;70.00
32081;BME280;18593;51.426;7.030;2023-03-23T06:24:20;99333.91;;;12.61;69.98
32081;BME280;18593;51.426;7.030;2023-03-23T06:26:48;99332.84;;;12.62;69.63
32081;BME280;18593;51.426;7.030;2023-03-23T06:29:20;99341.44;;;12.65;69.80
32081;BME280;18593;51.426;7.030;2023-03-23T06:31:54;99336.31;;;12.63;69.37
32081;BME280;18593;51.426;7.030;2023-03-23T06:34:24;99340.38;;;12.66;69.42
32081;BME280;18593;51.426;7.030;2023-03-23T06:37:23;99326.19;;;12.65;69.50
32081;BME280;18593;51.426;7.030;2023-03-23T06:40:03;99334.75;;;12.67;69.79
32081;BME280;18593;51.426;7.030;2023-03-23T06:42:38;99341.16;;;12.66;69.18
32081;BME280;18593;51.426;7.030;2023-03-23T06:45:26;99330.78;;;12.70;69.45
32081;BME280;18593;51.426;7.030;2023-03-23T06:48:10;99330.50;;;12.71;69.13
32081;BME280;18593;51.426;7.030;2023-03-23T06:50:37;99331.06;;;12.73;68.52
32081;BME280;18593;51.426;7.030;2023-03-23T06:53:06;99337.47;;;12.72;68.77
32081;BME280;18593;51.426;7.030;2023-03-23T06:55:33;99331.31;;;12.72;68.83
32081;BME280;18593;51.426;7.030;2023-03-23T06:58:02;99340.72;;;12.74;68.57
32081;BME280;18593;51.426;7.030;2023-03-23T07:00:30;99342.34;;;12.75;68.59
32081;BME280;18593;51.426;7.030;2023-03-23T07:02:58;99336.72;;;12.77;68.70
32081;BME280;18593;51.426;7.030;2023-03-23T07:05:25;99342.88;;;12.77;68.15
32081;BME280;18593;51.426;7.030;2023-03-23T07:07:53;99340.50;;;12.81;68.25
32081;BME280;18593;51.426;7.030;2023-03-23T07:10:29;99337.81;;;12.81;67.94
32081;BME280;18593;51.426;7.030;2023-03-23T07:12:57;99348.28;;;12.82;67.58
32081;BME280;18593;51.426;7.030;2023-03-23T07:15:25;99344.78;;;12.82;67.51
32081;BME280;18593;51.426;7.030;2023-03-23T07:17:56;99347.72;;;12.80;67.39
32081;BME280;18593;51.426;7.030;2023-03-23T07:20:34;99350.94;;;12.82;67.99
32081;BME280;18593;51.426;7.030;2023-03-23T07:23:02;99349.34;;;12.81;67.37
32081;BME280;18593;51.426;7.030;2023-03-23T07:25:52;99361.66;;;12.82;67.35
32081;BME280;18593;51.426;7.030;2023-03-23T07:28:24;99355.00;;;12.85;67.13
32081;BME280;18593;51.426;7.030;2023-03-23T07:30:54;99354.72;;;12.86;67.43
32081;BME280;18593;51.426;7.030;2023-03-23T07:33:22;99357.41;;;12.86;67.19
32081;BME280;18593;51.426;7.030;2023-03-23T07:35:50;99360.88;;;12.87;66.98
32081;BME280;18593;51.426;7.030;2023-03-23T07:38:18;99363.34;;;12.88;67.19
32081;BME280;18593;51.426;7.030;2023-03-23T07:40:48;99360.88;;;12.87;66.81
32081;BME280;18593;51.426;7.030;2023-03-23T07:43:17;99367.03;;;12.87;67.00
32081;BME280;18593;51.426;7.030;2023-03-23T07:46:03;99367.63;;;12.89;67.28
32081;BME280;18593;51.426;7.030;2023-03-23T07:48:55;99376.19;;;12.92;66.83
32081;BME280;18593;51.426;7.030;2023-03-23T07:51:29;99380.19;;;12.89;66.42
32081;BME280;18593;51.426;7.030;2023-03-23T07:53:56;99373.50;;;12.92;66.20
32081;BME280;18593;51.426;7.030;2023-03-23T07:56:59;99377.78;;;12.93;66.30
32081;BME280;18593;51.426;7.030;2023-03-23T07:59:30;99374.09;;;12.94;66.09
32081;BME280;18593;51.426;7.030;2023-03-23T08:01:58;99379.44;;;12.94;66.18
32081;BME280;18593;51.426;7.030;2023-03-23T08:04:54;99374.09;;;12.94;65.98
32081;BME280;18593;51.426;7.030;2023-03-23T08:07:45;99373.81;;;12.95;66.13
32081;BME280;18593;51.426;7.030;2023-03-23T08:10:51;99379.97;;;12.96;65.89
32081;BME280;18593;51.426;7.030;2023-03-23T08:13:38;99370.88;;;12.97;64.87
32081;BME280;18593;51.426;7.030;2023-03-23T08:16:31;99378.59;;;12.93;65.19
32081;BME280;18593;51.426;7.030;2023-03-23T08:19:09;99372.75;;;12.96;65.82
32081;BME280;18593;51.426;7.030;2023-03-23T08:22:00;99382.16;;;12.99;65.66
32081;BME280;18593;51.426;7.030;2023-03-23T08:24:52;99372.00;;;13.01;65.59
32081;BME280;18593;51.426;7.030;2023-03-23T08:27:30;99372.00;;;13.01;65.08
32081;BME280;18593;51.426;7.030;2023-03-23T08:30:26;99377.66;;;13.04;65.31
32081;BME280;18593;51.426;7.030;2023-03-23T08:33:21;99371.78;;;13.07;64.95
32081;BME280;18593;51.426;7.030;2023-03-23T08:36:01;99377.69;;;13.09;64.45
32081;BME280;18593;51.426;7.030;2023-03-23T08:38:48;99373.69;;;13.12;64.72
32081;BME280;18593;51.426;7.030;2023-03-23T08:41:52;99380.72;;;13.18;64.71
32081;BME280;18593;51.426;7.030;2023-03-23T08:44:48;99385.81;;;13.20;65.21
32081;BME280;18593;51.426;7.030;2023-03-23T08:47:36;99400.56;;;13.22;63.83
32081;BME280;18593;51.426;7.030;2023-03-23T08:50:07;99389.38;;;13.25;64.33
32081;BME280;18593;51.426;7.030;2023-03-23T08:52:58;99387.81;;;13.29;64.23
32081;BME280;18593;51.426;7.030;2023-03-23T08:55:52;99390.47;;;13.29;63.52
32081;BME280;18593;51.426;7.030;2023-03-23T08:58:33;99391.81;;;13.32;63.53
32081;BME280;18593;51.426;7.030;2023-03-23T09:01:16;99391.59;;;13.33;63.59
32081;BME280;18593;51.426;7.030;2023-03-23T09:03:43;99393.75;;;13.36;63.96
32081;BME280;18593;51.426;7.030;2023-03-23T09:06:24;99410.09;;;13.40;63.64
32081;BME280;18593;51.426;7.030;2023-03-23T09:08:51;99395.41;;;13.43;63.75
32081;BME280;18593;51.426;7.030;2023-03-23T09:11:19;99404.50;;;13.42;62.85
32081;BME280;18593;51.426;7.030;2023-03-23T09:13:46;99399.69;;;13.44;63.20
32081;BME280;18593;51.426;7.030;2023-03-23T09:16:13;99396.75;;;13.45;62.96
32081;BME280;18593;51.426;7.030;2023-03-23T09:18:40;99397.28;;;13.42;62.18
32081;BME280;18593;51.426;7.030;2023-03-23T09:21:07;99398.63;;;13.45;62.38
32081;BME280;18593;51.426;7.030;2023-03-23T09:23:35;99398.06;;;13.37;61.80
32081;BME280;18593;51.426;7.030;2023-03-23T09:26:02;99406.59;;;13.34;62.37
32081;BME280;18593;51.426;7.030;2023-03-23T09:28:31;99405.25;;;13.37;62.85
32081;BME280;18593;51.426;7.030;2023-03-23T09:30:58;99399.09;;;13.36;62.32
32081;BME280;18593;51.426;7.030;2023-03-23T09:33:25;99413.28;;;13.37;62.64
32081;BME280;18593;51.426;7.030;2023-03-23T09:35:52;99406.88;;;13.38;62.73
32081;BME280;18593;51.426;7.030;2023-03-23T09:38:19;99420.03;;;13.39;63.14
32081;BME280;18593;51.426;7.030;2023-03-23T09:40:48;99420.81;;;13.40;61.67
32081;BME280;18593;51.426;7.030;2023-03-23T09:43:39;99425.91;;;13.42;61.77
32081;BME280;18593;51.426;7.030;2023-03-23T09:46:18;99424.88;;;13.43;61.97
32081;BME280;18593;51.426;7.030;2023-03-23T09:48:51;99422.44;;;13.41;62.28
32081;BME280;18593;51.426;7.030;2023-03-23T09:51:28;99432.59;;;13.39;62.24
32081;BME280;18593;51.426;7.030;2023-03-23T09:54:01;99437.69;;;13.40;62.17
32081;BME280;18593;51.426;7.030;2023-03-23T09:56:30;99428.59;;;13.42;62.25
32081;BME280;18593;51.426;7.030;2023-03-23T09:59:02;99443.06;;;13.40;62.95
32081;BME280;18593;51.426;7.030;2023-03-23T10:01:34;99439.56;;;13.40;64.21
32081;BME280;18593;51.426;7.030;2023-03-23T10:04:05;99453.22;;;13.38;66.41
32081;BME280;18593;51.426;7.030;2023-03-23T10:06:34;99484.19;;;13.29;67.64
32081;BME280;18593;51.426;7.030;2023-03-23T10:09:03;99480.66;;;13.24;68.71
32081;BME280;18593;51.426;7.030;2023-03-23T10:11:37;99475.47;;;13.17;68.62
32081;BME280;18593;51.426;7.030;2023-03-23T10:14:17;99499.41;;;13.02;67.97
32081;BME280;18593;51.426;7.030;2023-03-23T10:16:50;99498.81;;;12.95;68.79
32081;BME280;18593;51.426;7.030;2023-03-23T10:19:26;99511.56;;;12.87;68.83
32081;BME280;18593;51.426;7.030;2023-03-23T10:21:59;99527.00;;;12.80;70.11
32081;BME280;18593;51.426;7.030;2023-03-23T10:24:32;99521.31;;;12.77;71.12
32081;BME280;18593;51.426;7.030;2023-03-23T10:27:06;99531.78;;;12.78;70.92
32081;BME280;18593;51.426;7.030;2023-03-23T10:29:42;99533.59;;;12.73;71.41
32081;BME280;18593;51.426;7.030;2023-03-23T10:32:12;99533.44;;;12.62;71.97
32081;BME280;18593;51.426;7.030;2023-03-23T10:34:42;99525.34;;;12.57;72.42
32081;BME280;18593;51.426;7.030;2023-03-23T10:37:12;99533.06;;;12.54;73.33
32081;BME280;18593;51.426;7.030;2023-03-23T10:39:46;99529.91;;;12.57;73.48
32081;BME280;18593;51.426;7.030;2023-03-23T10:42:22;99529.09;;;12.56;73.12
32081;BME280;18593;51.426;7.030;2023-03-23T10:44:52;99541.41;;;12.57;73.41
32081;BME280;18593;51.426;7.030;2023-03-23T10:47:19;99546.44;;;12.54;73.62
32081;BME280;18593;51.426;7.030;2023-03-23T10:49:48;99553.59;;;12.48;73.72
32081;BME280;18593;51.426;7.030;2023-03-23T10:52:35;99537.72;;;12.42;73.13
32081;BME280;18593;51.426;7.030;2023-03-23T10:55:04;99533.66;;;12.39;73.11
32081;BME280;18593;51.426;7.030;2023-03-23T10:57:32;99530.75;;;12.41;73.49
32081;BME280;18593;51.426;7.030;2023-03-23T11:00:04;99538.03;;;12.45;73.98
32081;BME280;18593;51.426;7.030;2023-03-23T11:02:37;99547.09;;;12.44;74.68
32081;BME280;18593;51.426;7.030;2023-03-23T11:05:12;99547.34;;;12.43;74.10
32081;BME280;18593;51.426;7.030;2023-03-23T11:07:40;99550.53;;;12.40;73.83
32081;BME280;18593;51.426;7.030;2023-03-23T11:10:17;99543.56;;;12.38;73.57
32081;BME280;18593;51.426;7.030;2023-03-23T11:12:47;99541.69;;;12.39;73.60
32081;BME280;18593;51.426;7.030;2023-03-23T11:15:25;99545.19;;;12.40;73.11
32081;BME280;18593;51.426;7.030;2023-03-23T11:17:57;99546.81;;;12.41;73.72
32081;BME280;18593;51.426;7.030;2023-03-23T11:20:25;99543.56;;;12.38;73.50
32081;BME280;18593;51.426;7.030;2023-03-23T11:22:54;99539.53;;;12.36;73.35
32081;BME280;18593;51.426;7.030;2023-03-23T11:25:21;99537.91;;;12.35;73.29
32081;BME280;18593;51.426;7.030;2023-03-23T11:27:49;99533.28;;;12.30;73.41
32081;BME280;18593;51.426;7.030;2023-03-23T11:30:24;99539.66;;;12.29;74.22
32081;BME280;18593;51.426;7.030;2023-03-23T11:32:53;99539.13;;;12.27;73.74
32081;BME280;18593;51.426;7.030;2023-03-23T11:35:23;99530.03;;;12.28;74.01
32081;BME280;18593;51.426;7.030;2023-03-23T11:37:54;99538.88;;;12.29;74.40
32081;BME280;18593;51.426;7.030;2023-03-23T11:40:23;99538.88;;;12.29;74.14
32081;BME280;18593;51.426;7.030;2023-03-23T11:42:57;99542.34;;;12.29;74.50
32081;BME280;18593;51.426;7.030;2023-03-23T11:45:31;99544.78;;;12.31;74.35
32081;BME280;18593;51.426;7.030;2023-03-23T11:48:03;99541.06;;;12.32;74.43
32081;BME280;18593;51.426;7.030;2023-03-23T11:50:37;99531.16;;;12.32;74.78
32081;BME280;18593;51.426;7.030;2023-03-23T11:53:10;99519.41;;;12.33;74.62
32081;BME280;18593;51.426;7.030;2023-03-23T11:55:52;99515.69;;;12.34;74.97
32081;BME280;18593;51.426;7.030;2023-03-23T11:58:21;99527.75;;;12.37;75.87
32081;BME280;18593;51.426;7.030;2023-03-23T12:00:55;99526.69;;;12.38;75.56
32081;BME280;18593;51.426;7.030;2023-03-23T12:03:23;99520.88;;;12.41;76.64
32081;BME280;18593;51.426;7.030;2023-03-23T12:05:58;99514.19;;;12.44;76.25
32081;BME280;18593;51.426;7.030;2023-03-23T12:08:36;99520.13;;;12.46;76.31
32081;BME280;18593;51.426;7.030;2023-03-23T12:11:12;99519.56;;;12.44;75.92
32081;BME280;18593;51.426;7.030;2023-03-23T12:13:54;99520.34;;;12.44;75.64
32081;BME280;18593;51.426;7.030;2023-03-23T12:16:34;99536.72;;;12.48;75.68
32081;BME280;18593;51.426;7.030;2023-03-23T12:19:13;99527.66;;;12.49;75.67
32081;BME280;18593;51.426;7.030;2023-03-23T12:21:49;99523.94;;;12.50;75.84
32081;BME280;18593;51.426;7.030;2023-03-23T12:24:30;99533.31;;;12.52;75.65
32081;BME280;18593;51.426;7.030;2023-03-23T12:27:05;99546.44;;;12.54;75.77
32081;BME280;18593;51.426;7.030;2023-03-23T12:29:52;99548.81;;;12.50;75.55
32081;BME280;18593;51.426;7.030;2023-03-23T12:32:33;99545.34;;;12.50;75.78
32081;BME280;18593;51.426;7.030;2023-03-23T12:35:13;99537.84;;;12.52;75.62
32081;BME280;18593;51.426;7.030;2023-03-23T12:37:48;99541.00;;;12.49;76.12
32081;BME280;18593;51.426;7.030;2023-03-23T12:43:28;99520.75;;;12.53;76.49
32081;BME280;18593;51.426;7.030;2023-03-23T12:46:11;99521.56;;;12.53;77.07
32081;BME280;18593;51.426;7.030;2023-03-23T12:48:45;99527.72;;;12.54;77.50
32081;BME280;18593;51.426;7.030;2023-03-23T12:51:19;99529.84;;;12.52;78.29
32081;BME280;18593;51.426;7.030;2023-03-23T12:53:55;99528.22;;;12.51;79.13
32081;BME280;18593;51.426;7.030;2023-03-23T12:56:28;99530.91;;;12.51;79.25
32081;BME280;18593;51.426;7.030;2023-03-23T12:59:01;99530.38;;;12.54;79.39
32081;BME280;18593;51.426;7.030;2023-03-23T13:01:31;99525.63;;;12.56;78.99
32081;BME280;18593;51.426;7.030;2023-03-23T13:04:03;99520.00;;;12.57;78.93
32081;BME280;18593;51.426;7.030;2023-03-23T13:06:33;99514.19;;;12.60;79.44
32081;BME280;18593;51.426;7.030;2023-03-23T13:09:04;99527.28;;;12.62;79.57
32081;BME280;18593;51.426;7.030;2023-03-23T13:11:33;99507.50;;;12.63;80.04
32081;BME280;18593;51.426;7.030;2023-03-23T13:14:08;99516.03;;;12.60;79.91
32081;BME280;18593;51.426;7.030;2023-03-23T13:16:42;99510.44;;;12.61;80.44
32081;BME280;18593;51.426;7.030;2023-03-23T13:19:16;99498.94;;;12.61;80.01
32081;BME280;18593;51.426;7.030;2023-03-23T13:21:49;99504.03;;;12.62;79.98
32081;BME280;18593;51.426;7.030;2023-03-23T13:24:21;99499.47;;;12.63;80.07
32081;BME280;18593;51.426;7.030;2023-03-23T13:26:51;99481.56;;;12.63;79.83
32081;BME280;18593;51.426;7.030;2023-03-23T13:29:19;99488.78;;;12.63;79.59
32081;BME280;18593;51.426;7.030;2023-03-23T13:31:50;99485.06;;;12.64;79.91
32081;BME280;18593;51.426;7.030;2023-03-23T13:34:19;99484.28;;;12.69;79.57
32081;BME280;18593;51.426;7.030;2023-03-23T13:36:53;99492.09;;;12.70;80.20